sensor_id;sensor_type;location;lat;lon;timestamp;P1;durP1;ratioP1;P2;durP2;ratioP2
51981;SDS011;37998;53.416;6.730;2024-03-29T00:01:23;3.47;;;1.48;;
51981;SDS011;37998;53.416;6.730;2024-03-29T00:03:49;5.68;;;1.50;;
51981;SDS011;37998;53.416;6.730;2024-03-29T00:06:15;6.05;;;1.50;;
51981;SDS011;37998;53.416;6.730;2024-03-29T00:08:41;7.88;;;1.63;;
51981;SDS011;37998;53.416;6.730;2024-03-29T00:11:07;11.45;;;1.50;;
51981;SDS011;37998;53.416;6.730;2024-03-29T00:13:33;4.43;;;1.48;;
51981;SDS011;37998;53.416;6.730;2024-03-29T00:16:00;4.03;;;1.70;;
51981;SDS011;37998;53.416;6.730;2024-03-29T00:18:26;4.15;;;1.60;;
51981;SDS011;37998;53.416;6.730;2024-03-29T00:20:53;3.65;;;1.42;;
51981;SDS011;37998;53.416;6.730;2024-03-29T00:23:18;4.57;;;1.60;;
51981;SDS011;37998;53.416;6.730;2024-03-29T00:25:44;2.47;;;1.30;;
51981;SDS011;37998;53.416;6.730;2024-03-29T00:28:10;3.45;;;1.40;;
51981;SDS011;37998;53.416;6.730;2024-03-29T00:30:36;6.38;;;1.50;;
51981;SDS011;37998;53.416;6.730;2024-03-29T00:33:02;6.18;;;1.55;;
51981;SDS011;37998;53.416;6.730;2024-03-29T00:35:28;5.63;;;1.95;;
51981;SDS011;37998;53.416;6.730;2024-03-29T00:37:54;4.32;;;1.33;;
51981;SDS011;37998;53.416;6.730;2024-03-29T00:40:20;6.22;;;1.42;;
51981;SDS011;37998;53.416;6.730;2024-03-29T00:42:48;3.65;;;1.67;;
51981;SDS011;37998;53.416;6.730;2024-03-29T00:45:17;5.72;;;1.75;;
51981;SDS011;37998;53.416;6.730;2024-03-29T00:47:43;4.40;;;1.80;;
51981;SDS011;37998;53.416;6.730;2024-03-29T00:50:09;6.10;;;1.50;;
51981;SDS011;37998;53.416;6.730;2024-03-29T00:52:35;5.10;;;1.55;;
51981;SDS011;37998;53.416;6.730;2024-03-29T00:55:01;3.83;;;1.77;;
51981;SDS011;37998;53.416;6.730;2024-03-29T00:57:33;4.38;;;1.60;;
51981;SDS011;37998;53.416;6.730;2024-03-29T00:59:59;4.57;;;1.42;;
51981;SDS011;37998;53.416;6.730;2024-03-29T01:02:31;6.00;;;1.42;;
51981;SDS011;37998;53.416;6.730;2024-03-29T01:04:57;5.25;;;1.45;;
51981;SDS011;37998;53.416;6.730;2024-03-29T01:07:23;7.00;;;1.80;;
51981;SDS011;37998;53.416;6.730;2024-03-29T01:09:51;3.38;;;2.05;;
51981;SDS011;37998;53.416;6.730;2024-03-29T01:12:17;5.35;;;1.92;;
51981;SDS011;37998;53.416;6.730;2024-03-29T01:14:44;12.10;;;2.58;;
51981;SDS011;37998;53.416;6.730;2024-03-29T01:17:10;3.45;;;1.75;;
51981;SDS011;37998;53.416;6.730;2024-03-29T01:19:36;4.10;;;1.65;;
51981;SDS011;37998;53.416;6.730;2024-03-29T01:22:03;5.43;;;1.70;;
51981;SDS011;37998;53.416;6.730;2024-03-29T01:24:29;4.25;;;1.67;;
51981;SDS011;37998;53.416;6.730;2024-03-29T01:26:55;6.47;;;2.17;;
51981;SDS011;37998;53.416;6.730;2024-03-29T01:29:21;6.70;;;2.05;;
51981;SDS011;37998;53.416;6.730;2024-03-29T01:31:47;7.28;;;1.52;;
51981;SDS011;37998;53.416;6.730;2024-03-29T01:34:13;8.23;;;1.60;;
51981;SDS011;37998;53.416;6.730;2024-03-29T01:36:39;5.78;;;1.70;;
51981;SDS011;37998;53.416;6.730;2024-03-29T01:39:05;7.03;;;1.92;;
51981;SDS011;37998;53.416;6.730;2024-03-29T01:41:33;4.18;;;1.40;;
51981;SDS011;37998;53.416;6.730;2024-03-29T01:43:59;4.43;;;1.73;;
51981;SDS011;37998;53.416;6.730;2024-03-29T01:46:25;4.30;;;1.58;;
51981;SDS011;37998;53.416;6.730;2024-03-29T01:48:53;7.57;;;2.05;;
51981;SDS011;37998;53.416;6.730;2024-03-29T01:51:19;4.82;;;1.75;;
51981;SDS011;37998;53.416;6.730;2024-03-29T01:53:50;6.60;;;1.60;;
51981;SDS011;37998;53.416;6.730;2024-03-29T01:56:18;8.35;;;2.00;;
51981;SDS011;37998;53.416;6.730;2024-03-29T01:58:47;4.28;;;1.98;;
51981;SDS011;37998;53.416;6.730;2024-03-29T02:01:18;6.88;;;1.60;;
51981;SDS011;37998;53.416;6.730;2024-03-29T02:03:48;3.45;;;1.52;;
51981;SDS011;37998;53.416;6.730;2024-03-29T02:06:17;6.43;;;1.58;;
51981;SDS011;37998;53.416;6.730;2024-03-29T02:08:44;6.35;;;1.60;;
51981;SDS011;37998;53.416;6.730;2024-03-29T02:11:10;5.88;;;1.70;;
51981;SDS011;37998;53.416;6.730;2024-03-29T02:13:36;6.70;;;1.88;;
51981;SDS011;37998;53.416;6.730;2024-03-29T02:16:03;5.82;;;1.60;;
51981;SDS011;37998;53.416;6.730;2024-03-29T02:18:29;4.38;;;1.40;;
51981;SDS011;37998;53.416;6.730;2024-03-29T02:20:55;3.40;;;1.40;;
51981;SDS011;37998;53.416;6.730;2024-03-29T02:23:23;3.65;;;1.50;;
51981;SDS011;37998;53.416;6.730;2024-03-29T02:25:52;6.25;;;1.63;;
51981;SDS011;37998;53.416;6.730;2024-03-29T02:28:18;6.07;;;1.60;;
51981;SDS011;37998;53.416;6.730;2024-03-29T02:30:44;6.15;;;1.30;;
51981;SDS011;37998;53.416;6.730;2024-03-29T02:33:10;4.07;;;1.42;;
51981;SDS011;37998;53.416;6.730;2024-03-29T02:35:36;7.30;;;1.40;;
51981;SDS011;37998;53.416;6.730;2024-03-29T02:38:02;3.28;;;1.33;;
51981;SDS011;37998;53.416;6.730;2024-03-29T02:40:28;6.93;;;1.67;;
51981;SDS011;37998;53.416;6.730;2024-03-29T02:42:54;7.03;;;1.55;;
51981;SDS011;37998;53.416;6.730;2024-03-29T02:45:20;4.78;;;1.88;;
51981;SDS011;37998;53.416;6.730;2024-03-29T02:47:46;6.43;;;1.70;;
51981;SDS011;37998;53.416;6.730;2024-03-29T02:50:12;7.07;;;1.48;;
51981;SDS011;37998;53.416;6.730;2024-03-29T02:52:39;4.30;;;1.92;;
51981;SDS011;37998;53.416;6.730;2024-03-29T02:55:05;5.18;;;1.55;;
51981;SDS011;37998;53.416;6.730;2024-03-29T02:57:31;2.45;;;1.30;;
51981;SDS011;37998;53.416;6.730;2024-03-29T02:59:57;5.85;;;1.95;;
51981;SDS011;37998;53.416;6.730;2024-03-29T03:02:23;5.95;;;1.48;;
51981;SDS011;37998;53.416;6.730;2024-03-29T03:04:49;5.20;;;1.48;;
51981;SDS011;37998;53.416;6.730;2024-03-29T03:07:15;3.85;;;1.50;;
51981;SDS011;37998;53.416;6.730;2024-03-29T03:09:59;8.13;;;2.85;;
51981;SDS011;37998;53.416;6.730;2024-03-29T03:12:44;3.05;;;1.65;;
51981;SDS011;37998;53.416;6.730;2024-03-29T03:15:10;6.32;;;2.15;;
51981;SDS011;37998;53.416;6.730;2024-03-29T03:17:39;6.35;;;1.70;;
51981;SDS011;37998;53.416;6.730;2024-03-29T03:20:05;4.13;;;1.42;;
51981;SDS011;37998;53.416;6.730;2024-03-29T03:22:32;6.53;;;1.48;;
51981;SDS011;37998;53.416;6.730;2024-03-29T03:24:58;7.28;;;1.40;;
51981;SDS011;37998;53.416;6.730;2024-03-29T03:27:24;6.68;;;1.70;;
51981;SDS011;37998;53.416;6.730;2024-03-29T03:29:50;7.43;;;2.05;;
51981;SDS011;37998;53.416;6.730;2024-03-29T03:32:16;4.60;;;1.60;;
51981;SDS011;37998;53.416;6.730;2024-03-29T03:34:42;5.57;;;1.30;;
51981;SDS011;37998;53.416;6.730;2024-03-29T03:37:08;5.07;;;1.50;;
51981;SDS011;37998;53.416;6.730;2024-03-29T03:39:34;6.03;;;2.08;;
51981;SDS011;37998;53.416;6.730;2024-03-29T03:42:00;6.22;;;1.77;;
51981;SDS011;37998;53.416;6.730;2024-03-29T03:44:25;3.53;;;1.73;;
51981;SDS011;37998;53.416;6.730;2024-03-29T03:46:53;6.70;;;1.60;;
51981;SDS011;37998;53.416;6.730;2024-03-29T03:49:20;6.75;;;1.77;;
51981;SDS011;37998;53.416;6.730;2024-03-29T03:51:46;3.22;;;1.40;;
51981;SDS011;37998;53.416;6.730;2024-03-29T03:54:12;6.15;;;1.70;;
51981;SDS011;37998;53.416;6.730;2024-03-29T03:56:38;4.90;;;1.52;;
51981;SDS011;37998;53.416;6.730;2024-03-29T03:59:03;5.60;;;1.60;;
51981;SDS011;37998;53.416;6.730;2024-03-29T04:01:29;6.25;;;1.52;;
51981;SDS011;37998;53.416;6.730;2024-03-29T04:03:55;5.18;;;1.60;;
51981;SDS011;37998;53.416;6.730;2024-03-29T04:06:21;6.20;;;1.55;;
51981;SDS011;37998;53.416;6.730;2024-03-29T04:08:47;5.47;;;1.40;;
51981;SDS011;37998;53.416;6.730;2024-03-29T04:11:13;5.50;;;1.80;;
51981;SDS011;37998;53.416;6.730;2024-03-29T04:13:39;3.58;;;1.27;;
51981;SDS011;37998;53.416;6.730;2024-03-29T04:16:07;4.25;;;1.85;;
51981;SDS011;37998;53.416;6.730;2024-03-29T04:18:33;5.32;;;1.58;;
51981;SDS011;37998;53.416;6.730;2024-03-29T04:21:00;3.75;;;1.75;;
51981;SDS011;37998;53.416;6.730;2024-03-29T04:23:27;6.38;;;1.60;;
51981;SDS011;37998;53.416;6.730;2024-03-29T04:25:53;5.88;;;2.00;;
51981;SDS011;37998;53.416;6.730;2024-03-29T04:28:23;2.92;;;1.40;;
51981;SDS011;37998;53.416;6.730;2024-03-29T04:30:57;4.90;;;1.52;;
51981;SDS011;37998;53.416;6.730;2024-03-29T04:33:24;3.92;;;1.50;;
51981;SDS011;37998;53.416;6.730;2024-03-29T04:35:54;4.88;;;1.42;;
51981;SDS011;37998;53.416;6.730;2024-03-29T04:38:25;6.95;;;1.60;;
51981;SDS011;37998;53.416;6.730;2024-03-29T04:40:53;3.00;;;1.40;;
51981;SDS011;37998;53.416;6.730;2024-03-29T04:43:21;3.65;;;1.50;;
51981;SDS011;37998;53.416;6.730;2024-03-29T04:45:48;2.70;;;1.30;;
51981;SDS011;37998;53.416;6.730;2024-03-29T04:48:14;3.42;;;1.45;;
51981;SDS011;37998;53.416;6.730;2024-03-29T04:50:40;4.53;;;1.35;;
51981;SDS011;37998;53.416;6.730;2024-03-29T04:53:09;6.90;;;2.60;;
51981;SDS011;37998;53.416;6.730;2024-03-29T04:55:35;3.80;;;1.20;;
51981;SDS011;37998;53.416;6.730;2024-03-29T04:58:01;5.40;;;1.80;;
51981;SDS011;37998;53.416;6.730;2024-03-29T05:00:28;4.38;;;1.52;;
51981;SDS011;37998;53.416;6.730;2024-03-29T05:02:54;5.35;;;1.42;;
51981;SDS011;37998;53.416;6.730;2024-03-29T05:05:20;7.65;;;1.60;;
51981;SDS011;37998;53.416;6.730;2024-03-29T05:07:46;3.42;;;1.38;;
51981;SDS011;37998;53.416;6.730;2024-03-29T05:10:11;8.98;;;2.08;;
51981;SDS011;37998;53.416;6.730;2024-03-29T05:12:38;7.32;;;1.85;;
51981;SDS011;37998;53.416;6.730;2024-03-29T05:15:04;4.15;;;1.30;;
51981;SDS011;37998;53.416;6.730;2024-03-29T05:17:30;4.18;;;1.55;;
51981;SDS011;37998;53.416;6.730;2024-03-29T05:19:56;4.60;;;1.75;;
51981;SDS011;37998;53.416;6.730;2024-03-29T05:22:22;2.83;;;1.48;;
51981;SDS011;37998;53.416;6.730;2024-03-29T05:24:54;9.98;;;1.95;;
51981;SDS011;37998;53.416;6.730;2024-03-29T05:27:23;6.55;;;1.38;;
51981;SDS011;37998;53.416;6.730;2024-03-29T05:29:49;8.05;;;1.40;;
51981;SDS011;37998;53.416;6.730;2024-03-29T05:32:15;7.30;;;1.38;;
51981;SDS011;37998;53.416;6.730;2024-03-29T05:34:42;5.97;;;1.50;;
51981;SDS011;37998;53.416;6.730;2024-03-29T05:37:08;8.48;;;1.88;;
51981;SDS011;37998;53.416;6.730;2024-03-29T05:39:34;4.63;;;1.30;;
51981;SDS011;37998;53.416;6.730;2024-03-29T05:42:02;5.82;;;1.63;;
51981;SDS011;37998;53.416;6.730;2024-03-29T05:44:29;6.88;;;1.75;;
51981;SDS011;37998;53.416;6.730;2024-03-29T05:46:55;6.93;;;1.73;;
51981;SDS011;37998;53.416;6.730;2024-03-29T05:49:21;2.75;;;1.27;;
51981;SDS011;37998;53.416;6.730;2024-03-29T05:51:47;5.28;;;1.30;;
51981;SDS011;37998;53.416;6.730;2024-03-29T05:54:13;6.40;;;1.42;;
51981;SDS011;37998;53.416;6.730;2024-03-29T05:56:39;9.68;;;1.98;;
51981;SDS011;37998;53.416;6.730;2024-03-29T05:59:05;7.70;;;1.67;;
51981;SDS011;37998;53.416;6.730;2024-03-29T06:01:31;7.10;;;1.63;;
51981;SDS011;37998;53.416;6.730;2024-03-29T06:03:57;3.85;;;1.33;;
51981;SDS011;37998;53.416;6.730;2024-03-29T06:06:29;4.05;;;1.48;;
51981;SDS011;37998;53.416;6.730;2024-03-29T06:08:55;3.47;;;1.30;;
51981;SDS011;37998;53.416;6.730;2024-03-29T06:11:21;2.75;;;1.40;;
51981;SDS011;37998;53.416;6.730;2024-03-29T06:13:47;5.80;;;1.60;;
51981;SDS011;37998;53.416;6.730;2024-03-29T06:16:20;4.47;;;1.27;;
51981;SDS011;37998;53.416;6.730;2024-03-29T06:19:05;8.05;;;1.50;;
51981;SDS011;37998;53.416;6.730;2024-03-29T06:21:31;4.22;;;1.17;;
51981;SDS011;37998;53.416;6.730;2024-03-29T06:24:07;8.80;;;1.63;;
51981;SDS011;37998;53.416;6.730;2024-03-29T06:26:34;4.95;;;1.50;;
51981;SDS011;37998;53.416;6.730;2024-03-29T06:29:00;4.18;;;1.65;;
51981;SDS011;37998;53.416;6.730;2024-03-29T06:31:27;4.63;;;1.20;;
51981;SDS011;37998;53.416;6.730;2024-03-29T06:33:53;2.50;;;1.70;;
51981;SDS011;37998;53.416;6.730;2024-03-29T06:36:19;3.65;;;1.17;;
51981;SDS011;37998;53.416;6.730;2024-03-29T06:38:45;4.72;;;1.63;;
51981;SDS011;37998;53.416;6.730;2024-03-29T06:41:11;3.65;;;1.30;;
51981;SDS011;37998;53.416;6.730;2024-03-29T06:43:40;4.78;;;1.35;;
51981;SDS011;37998;53.416;6.730;2024-03-29T06:46:07;3.92;;;1.40;;
51981;SDS011;37998;53.416;6.730;2024-03-29T06:48:33;3.00;;;1.30;;
51981;SDS011;37998;53.416;6.730;2024-03-29T06:50:59;3.25;;;1.30;;
51981;SDS011;37998;53.416;6.730;2024-03-29T06:53:24;3.97;;;1.30;;
51981;SDS011;37998;53.416;6.730;2024-03-29T06:55:51;4.07;;;1.90;;
51981;SDS011;37998;53.416;6.730;2024-03-29T06:58:17;4.72;;;1.23;;
51981;SDS011;37998;53.416;6.730;2024-03-29T07:00:45;1.70;;;1.10;;
51981;SDS011;37998;53.416;6.730;2024-03-29T07:03:15;4.68;;;1.33;;
51981;SDS011;37998;53.416;6.730;2024-03-29T07:05:42;3.10;;;1.20;;
51981;SDS011;37998;53.416;6.730;2024-03-29T07:08:08;5.30;;;1.58;;
51981;SDS011;37998;53.416;6.730;2024-03-29T07:10:34;4.60;;;1.15;;
51981;SDS011;37998;53.416;6.730;2024-03-29T07:13:00;4.68;;;1.20;;
51981;SDS011;37998;53.416;6.730;2024-03-29T07:15:26;1.42;;;0.95;;
51981;SDS011;37998;53.416;6.730;2024-03-29T07:17:52;3.03;;;1.30;;
51981;SDS011;37998;53.416;6.730;2024-03-29T07:20:18;1.10;;;1.00;;
51981;SDS011;37998;53.416;6.730;2024-03-29T07:22:44;4.53;;;1.30;;
51981;SDS011;37998;53.416;6.730;2024-03-29T07:25:11;4.97;;;1.20;;
51981;SDS011;37998;53.416;6.730;2024-03-29T07:27:37;2.70;;;1.10;;
51981;SDS011;37998;53.416;6.730;2024-03-29T07:30:03;3.80;;;1.20;;
51981;SDS011;37998;53.416;6.730;2024-03-29T07:32:30;2.40;;;0.95;;
51981;SDS011;37998;53.416;6.730;2024-03-29T07:34:56;3.42;;;1.08;;
51981;SDS011;37998;53.416;6.730;2024-03-29T07:37:26;4.40;;;1.20;;
51981;SDS011;37998;53.416;6.730;2024-03-29T07:39:52;3.03;;;1.25;;
51981;SDS011;37998;53.416;6.730;2024-03-29T07:42:17;2.35;;;1.13;;
51981;SDS011;37998;53.416;6.730;2024-03-29T07:44:44;1.85;;;1.10;;
51981;SDS011;37998;53.416;6.730;2024-03-29T07:47:13;3.65;;;1.02;;
51981;SDS011;37998;53.416;6.730;2024-03-29T07:49:39;4.63;;;1.27;;
51981;SDS011;37998;53.416;6.730;2024-03-29T07:52:06;5.35;;;1.50;;
51981;SDS011;37998;53.416;6.730;2024-03-29T07:54:34;1.83;;;1.00;;
51981;SDS011;37998;53.416;6.730;2024-03-29T07:57:00;3.08;;;1.20;;
51981;SDS011;37998;53.416;6.730;2024-03-29T07:59:27;2.03;;;0.98;;
51981;SDS011;37998;53.416;6.730;2024-03-29T08:01:53;3.33;;;1.15;;
51981;SDS011;37998;53.416;6.730;2024-03-29T08:04:21;2.28;;;1.10;;
51981;SDS011;37998;53.416;6.730;2024-03-29T08:06:47;2.53;;;1.27;;
51981;SDS011;37998;53.416;6.730;2024-03-29T08:09:13;6.38;;;1.38;;
51981;SDS011;37998;53.416;6.730;2024-03-29T08:11:42;4.20;;;1.25;;
51981;SDS011;37998;53.416;6.730;2024-03-29T08:14:10;4.93;;;1.10;;
51981;SDS011;37998;53.416;6.730;2024-03-29T08:16:36;4.82;;;1.05;;
51981;SDS011;37998;53.416;6.730;2024-03-29T08:19:02;1.95;;;1.10;;
51981;SDS011;37998;53.416;6.730;2024-03-29T08:21:28;1.05;;;0.95;;
51981;SDS011;37998;53.416;6.730;2024-03-29T08:23:55;3.78;;;1.30;;
51981;SDS011;37998;53.416;6.730;2024-03-29T08:26:22;2.35;;;1.20;;
51981;SDS011;37998;53.416;6.730;2024-03-29T08:28:48;2.08;;;1.02;;
51981;SDS011;37998;53.416;6.730;2024-03-29T08:31:14;2.65;;;1.08;;
51981;SDS011;37998;53.416;6.730;2024-03-29T08:33:40;2.00;;;0.93;;
51981;SDS011;37998;53.416;6.730;2024-03-29T08:36:08;2.60;;;1.10;;
51981;SDS011;37998;53.416;6.730;2024-03-29T08:38:36;1.40;;;0.95;;
51981;SDS011;37998;53.416;6.730;2024-03-29T08:41:04;4.60;;;1.20;;
51981;SDS011;37998;53.416;6.730;2024-03-29T08:43:30;2.88;;;1.10;;
51981;SDS011;37998;53.416;6.730;2024-03-29T08:45:56;1.80;;;1.13;;
51981;SDS011;37998;53.416;6.730;2024-03-29T08:48:23;3.25;;;1.63;;
51981;SDS011;37998;53.416;6.730;2024-03-29T08:50:50;2.30;;;1.10;;
51981;SDS011;37998;53.416;6.730;2024-03-29T08:53:16;2.28;;;1.20;;
51981;SDS011;37998;53.416;6.730;2024-03-29T08:55:42;3.40;;;1.30;;
51981;SDS011;37998;53.416;6.730;2024-03-29T08:58:08;3.88;;;1.23;;
51981;SDS011;37998;53.416;6.730;2024-03-29T09:00:34;4.20;;;1.38;;
51981;SDS011;37998;53.416;6.730;2024-03-29T09:03:00;1.60;;;0.98;;
51981;SDS011;37998;53.416;6.730;2024-03-29T09:05:26;4.55;;;1.15;;
51981;SDS011;37998;53.416;6.730;2024-03-29T09:07:54;2.67;;;1.15;;
51981;SDS011;37998;53.416;6.730;2024-03-29T09:10:22;2.47;;;1.25;;
51981;SDS011;37998;53.416;6.730;2024-03-29T09:12:49;2.83;;;1.45;;
51981;SDS011;37998;53.416;6.730;2024-03-29T09:15:15;1.95;;;1.05;;
51981;SDS011;37998;53.416;6.730;2024-03-29T09:17:44;1.48;;;1.10;;
51981;SDS011;37998;53.416;6.730;2024-03-29T09:20:11;2.35;;;1.10;;
51981;SDS011;37998;53.416;6.730;2024-03-29T09:22:38;3.17;;;1.27;;
51981;SDS011;37998;53.416;6.730;2024-03-29T09:25:07;2.13;;;1.08;;
51981;SDS011;37998;53.416;6.730;2024-03-29T09:27:39;6.22;;;1.17;;
51981;SDS011;37998;53.416;6.730;2024-03-29T09:30:08;1.83;;;1.00;;
51981;SDS011;37998;53.416;6.730;2024-03-29T09:32:36;4.95;;;1.10;;
51981;SDS011;37998;53.416;6.730;2024-03-29T09:35:02;2.20;;;0.80;;
51981;SDS011;37998;53.416;6.730;2024-03-29T09:37:28;1.60;;;0.88;;
51981;SDS011;37998;53.416;6.730;2024-03-29T09:39:54;1.05;;;0.73;;
51981;SDS011;37998;53.416;6.730;2024-03-29T09:42:21;2.08;;;0.90;;
51981;SDS011;37998;53.416;6.730;2024-03-29T09:44:50;1.35;;;1.00;;
51981;SDS011;37998;53.416;6.730;2024-03-29T09:47:17;2.45;;;0.80;;
51981;SDS011;37998;53.416;6.730;2024-03-29T09:49:44;1.85;;;1.00;;
51981;SDS011;37998;53.416;6.730;2024-03-29T09:52:16;2.22;;;0.90;;
51981;SDS011;37998;53.416;6.730;2024-03-29T09:54:43;3.75;;;0.93;;
51981;SDS011;37998;53.416;6.730;2024-03-29T09:57:09;1.88;;;1.00;;
51981;SDS011;37998;53.416;6.730;2024-03-29T09:59:38;2.17;;;1.00;;
51981;SDS011;37998;53.416;6.730;2024-03-29T10:02:16;1.27;;;0.88;;
51981;SDS011;37998;53.416;6.730;2024-03-29T10:04:45;2.13;;;0.77;;
51981;SDS011;37998;53.416;6.730;2024-03-29T10:07:14;1.50;;;0.77;;
51981;SDS011;37998;53.416;6.730;2024-03-29T10:09:41;2.53;;;0.82;;
51981;SDS011;37998;53.416;6.730;2024-03-29T10:12:09;1.08;;;0.90;;
51981;SDS011;37998;53.416;6.730;2024-03-29T10:14:48;1.55;;;0.80;;
51981;SDS011;37998;53.416;6.730;2024-03-29T10:17:17;1.85;;;1.05;;
51981;SDS011;37998;53.416;6.730;2024-03-29T10:19:44;2.03;;;1.10;;
51981;SDS011;37998;53.416;6.730;2024-03-29T10:22:11;1.38;;;0.95;;
51981;SDS011;37998;53.416;6.730;2024-03-29T10:24:37;2.78;;;1.10;;
51981;SDS011;37998;53.416;6.730;2024-03-29T10:27:03;1.45;;;0.80;;
51981;SDS011;37998;53.416;6.730;2024-03-29T10:29:29;1.10;;;0.70;;
51981;SDS011;37998;53.416;6.730;2024-03-29T10:31:56;0.88;;;0.82;;
51981;SDS011;37998;53.416;6.730;2024-03-29T10:34:22;4.30;;;1.10;;
51981;SDS011;37998;53.416;6.730;2024-03-29T10:36:50;1.08;;;1.00;;
51981;SDS011;37998;53.416;6.730;2024-03-29T10:39:16;2.00;;;0.95;;
51981;SDS011;37998;53.416;6.730;2024-03-29T10:41:43;1.65;;;0.95;;
51981;SDS011;37998;53.416;6.730;2024-03-29T10:44:12;1.95;;;1.15;;
51981;SDS011;37998;53.416;6.730;2024-03-29T10:46:40;1.95;;;1.20;;
51981;SDS011;37998;53.416;6.730;2024-03-29T10:49:13;1.92;;;1.15;;
51981;SDS011;37998;53.416;6.730;2024-03-29T10:51:42;1.77;;;1.10;;
51981;SDS011;37998;53.416;6.730;2024-03-29T10:54:09;2.88;;;1.25;;
51981;SDS011;37998;53.416;6.730;2024-03-29T10:56:36;1.05;;;0.93;;
51981;SDS011;37998;53.416;6.730;2024-03-29T10:59:06;1.65;;;1.05;;
51981;SDS011;37998;53.416;6.730;2024-03-29T11:01:59;4.18;;;1.42;;
51981;SDS011;37998;53.416;6.730;2024-03-29T11:04:28;1.98;;;1.10;;
51981;SDS011;37998;53.416;6.730;2024-03-29T11:06:59;2.65;;;1.17;;
51981;SDS011;37998;53.416;6.730;2024-03-29T11:09:30;1.10;;;0.90;;
51981;SDS011;37998;53.416;6.730;2024-03-29T11:11:58;1.15;;;0.80;;
51981;SDS011;37998;53.416;6.730;2024-03-29T11:14:35;4.65;;;1.13;;
51981;SDS011;37998;53.416;6.730;2024-03-29T11:17:07;1.67;;;1.00;;
51981;SDS011;37998;53.416;6.730;2024-03-29T11:19:35;1.15;;;0.90;;
51981;SDS011;37998;53.416;6.730;2024-03-29T11:22:01;1.40;;;1.08;;
51981;SDS011;37998;53.416;6.730;2024-03-29T11:24:28;2.65;;;0.93;;
51981;SDS011;37998;53.416;6.730;2024-03-29T11:26:54;0.70;;;0.70;;
51981;SDS011;37998;53.416;6.730;2024-03-29T11:29:21;2.20;;;0.80;;
51981;SDS011;37998;53.416;6.730;2024-03-29T11:31:55;1.17;;;0.88;;
51981;SDS011;37998;53.416;6.730;2024-03-29T11:34:22;1.13;;;1.00;;
51981;SDS011;37998;53.416;6.730;2024-03-29T11:36:48;2.03;;;0.85;;
51981;SDS011;37998;53.416;6.730;2024-03-29T11:39:23;1.10;;;0.93;;
51981;SDS011;37998;53.416;6.730;2024-03-29T11:41:49;2.20;;;1.10;;
51981;SDS011;37998;53.416;6.730;2024-03-29T11:44:16;2.20;;;1.20;;
51981;SDS011;37998;53.416;6.730;2024-03-29T11:46:42;2.00;;;1.10;;
51981;SDS011;37998;53.416;6.730;2024-03-29T11:49:12;1.63;;;0.88;;
51981;SDS011;37998;53.416;6.730;2024-03-29T11:51:40;2.83;;;1.10;;
51981;SDS011;37998;53.416;6.730;2024-03-29T11:54:06;1.15;;;1.10;;
51981;SDS011;37998;53.416;6.730;2024-03-29T11:56:32;1.65;;;1.17;;
51981;SDS011;37998;53.416;6.730;2024-03-29T11:58:58;1.48;;;1.02;;
51981;SDS011;37998;53.416;6.730;2024-03-29T12:01:27;1.95;;;1.13;;
51981;SDS011;37998;53.416;6.730;2024-03-29T12:03:54;5.68;;;1.20;;
51981;SDS011;37998;53.416;6.730;2024-03-29T12:06:20;2.58;;;1.10;;
51981;SDS011;37998;53.416;6.730;2024-03-29T12:08:47;2.80;;;1.10;;
51981;SDS011;37998;53.416;6.730;2024-03-29T12:11:14;2.35;;;1.10;;
51981;SDS011;37998;53.416;6.730;2024-03-29T12:13:40;2.78;;;1.02;;
51981;SDS011;37998;53.416;6.730;2024-03-29T12:16:06;2.95;;;1.10;;
51981;SDS011;37998;53.416;6.730;2024-03-29T12:18:33;1.27;;;1.15;;
51981;SDS011;37998;53.416;6.730;2024-03-29T12:21:00;2.83;;;1.17;;
51981;SDS011;37998;53.416;6.730;2024-03-29T12:23:26;3.85;;;1.23;;
51981;SDS011;37998;53.416;6.730;2024-03-29T12:25:53;2.38;;;1.20;;
51981;SDS011;37998;53.416;6.730;2024-03-29T12:28:22;2.00;;;1.27;;
51981;SDS011;37998;53.416;6.730;2024-03-29T12:30:49;2.97;;;1.30;;
51981;SDS011;37998;53.416;6.730;2024-03-29T12:33:20;4.90;;;1.85;;
51981;SDS011;37998;53.416;6.730;2024-03-29T12:35:48;2.13;;;1.55;;
51981;SDS011;37998;53.416;6.730;2024-03-29T12:38:16;2.53;;;1.60;;
51981;SDS011;37998;53.416;6.730;2024-03-29T12:40:43;2.15;;;1.35;;
51981;SDS011;37998;53.416;6.730;2024-03-29T12:43:13;3.85;;;1.95;;
51981;SDS011;37998;53.416;6.730;2024-03-29T12:45:46;4.03;;;1.52;;
51981;SDS011;37998;53.416;6.730;2024-03-29T12:48:13;2.67;;;1.80;;
51981;SDS011;37998;53.416;6.730;2024-03-29T12:50:41;3.67;;;1.70;;
51981;SDS011;37998;53.416;6.730;2024-03-29T12:53:09;1.88;;;1.58;;
51981;SDS011;37998;53.416;6.730;2024-03-29T12:55:40;4.97;;;1.65;;
51981;SDS011;37998;53.416;6.730;2024-03-29T12:58:09;3.17;;;1.73;;
51981;SDS011;37998;53.416;6.730;2024-03-29T13:00:36;3.00;;;1.48;;
51981;SDS011;37998;53.416;6.730;2024-03-29T13:03:03;5.32;;;1.77;;
51981;SDS011;37998;53.416;6.730;2024-03-29T13:05:30;3.75;;;1.80;;
51981;SDS011;37998;53.416;6.730;2024-03-29T13:08:03;4.55;;;1.85;;
51981;SDS011;37998;53.416;6.730;2024-03-29T13:10:30;4.28;;;1.60;;
51981;SDS011;37998;53.416;6.730;2024-03-29T13:12:57;4.47;;;1.80;;
51981;SDS011;37998;53.416;6.730;2024-03-29T13:15:23;2.97;;;1.92;;
51981;SDS011;37998;53.416;6.730;2024-03-29T13:17:52;5.18;;;1.80;;
51981;SDS011;37998;53.416;6.730;2024-03-29T13:20:20;4.60;;;1.90;;
51981;SDS011;37998;53.416;6.730;2024-03-29T13:22:47;5.72;;;1.92;;
51981;SDS011;37998;53.416;6.730;2024-03-29T13:25:18;2.63;;;2.05;;
51981;SDS011;37998;53.416;6.730;2024-03-29T13:27:46;7.03;;;2.30;;
51981;SDS011;37998;53.416;6.730;2024-03-29T13:30:14;3.00;;;2.10;;
51981;SDS011;37998;53.416;6.730;2024-03-29T13:32:41;3.97;;;2.30;;
51981;SDS011;37998;53.416;6.730;2024-03-29T13:35:08;4.82;;;2.50;;
51981;SDS011;37998;53.416;6.730;2024-03-29T13:37:36;2.08;;;1.75;;
51981;SDS011;37998;53.416;6.730;2024-03-29T13:40:03;2.20;;;1.92;;
51981;SDS011;37998;53.416;6.730;2024-03-29T13:42:30;4.55;;;2.50;;
51981;SDS011;37998;53.416;6.730;2024-03-29T13:44:56;5.00;;;2.08;;
51981;SDS011;37998;53.416;6.730;2024-03-29T13:47:22;4.32;;;2.20;;
51981;SDS011;37998;53.416;6.730;2024-03-29T13:49:51;3.42;;;2.08;;
51981;SDS011;37998;53.416;6.730;2024-03-29T13:52:20;4.55;;;1.88;;
51981;SDS011;37998;53.416;6.730;2024-03-29T13:54:48;3.58;;;1.88;;
51981;SDS011;37998;53.416;6.730;2024-03-29T13:57:15;1.95;;;1.80;;
51981;SDS011;37998;53.416;6.730;2024-03-29T13:59:45;1.98;;;1.88;;
51981;SDS011;37998;53.416;6.730;2024-03-29T14:02:12;3.88;;;2.00;;
51981;SDS011;37998;53.416;6.730;2024-03-29T14:04:40;3.85;;;2.22;;
51981;SDS011;37998;53.416;6.730;2024-03-29T14:07:07;3.78;;;2.30;;
51981;SDS011;37998;53.416;6.730;2024-03-29T14:09:37;4.40;;;2.50;;
51981;SDS011;37998;53.416;6.730;2024-03-29T14:12:04;4.97;;;2.60;;
51981;SDS011;37998;53.416;6.730;2024-03-29T14:14:31;6.53;;;2.38;;
51981;SDS011;37998;53.416;6.730;2024-03-29T14:16:57;2.78;;;2.20;;
51981;SDS011;37998;53.416;6.730;2024-03-29T14:19:23;4.78;;;2.20;;
51981;SDS011;37998;53.416;6.730;2024-03-29T14:21:50;3.60;;;2.00;;
51981;SDS011;37998;53.416;6.730;2024-03-29T14:24:15;3.25;;;1.83;;
51981;SDS011;37998;53.416;6.730;2024-03-29T14:26:44;2.95;;;1.70;;
51981;SDS011;37998;53.416;6.730;2024-03-29T14:29:10;2.47;;;1.80;;
51981;SDS011;37998;53.416;6.730;2024-03-29T14:31:40;3.75;;;1.70;;
51981;SDS011;37998;53.416;6.730;2024-03-29T14:34:10;2.95;;;1.67;;
51981;SDS011;37998;53.416;6.730;2024-03-29T14:36:36;3.72;;;1.63;;
51981;SDS011;37998;53.416;6.730;2024-03-29T14:39:02;2.60;;;1.55;;
51981;SDS011;37998;53.416;6.730;2024-03-29T14:41:28;3.25;;;1.65;;
51981;SDS011;37998;53.416;6.730;2024-03-29T14:43:54;2.08;;;1.25;;
51981;SDS011;37998;53.416;6.730;2024-03-29T14:46:22;2.95;;;1.25;;
51981;SDS011;37998;53.416;6.730;2024-03-29T14:48:49;2.63;;;1.40;;